台北 の空港の天気 - METARとTAF

台湾桃園国際空港 ( RCTP / TPE ) - 台湾 台北市
飛行場実況気象(Metar)
観測時間01/21 21:12 CST (01/21 13:12 UTC)
風向・風速北東 9m/s
視程9000m
天気現象弱い雨
全天の4割程度の雲 雲底高度 240m
全天の8割程度の雲 雲底高度 300m
全天の8割程度の雲 雲底高度 550m
気温15℃
湿度94%
気圧1023hPa
METARRCTP 211312Z 04017KT 9000 -RA SCT008 BKN010 BKN018 15/14 Q1023 WS ALL RWY NOSIG RMK A3022
過去の天気等 Google飛行場航空写真 Wunderground天気予報

過去48時間のMETAR

飛行場予報(TAF)
発表時間: 1/21 19:00 CST (1/21 11:00 UTC)
予報対象時間: 21日20時 CST ~ 23日2時 CST
風向・風速北東 7m/s
視程10km以上
少しの雲 雲底高度 370m
全天の8割程度の雲 雲底高度 980m
21日20時 CST ~ 21日24時 CST に一時的に
全天の4割程度の雲 雲底高度 300m
全天の8割程度の雲 雲底高度 520m
22日2時 CST ~ 22日8時 CST に一時的に
風向・風速東北東 4m/s
全天の4割程度の雲 雲底高度 240m
全天の8割程度の雲 雲底高度 490m
22日11時 CST ~ 22日17時 CST に一時的に
風向・風速東北東 9m/s
TAF RCTP 211100Z 2112/2218 05013KT 9999 FEW012 BKN032
TEMPO 2112/2116 SCT010 BKN017
TEMPO 2118/2124 07007KT SCT008 BKN016
TEMPO 2203/2209 06018KT